sensor_id;sensor_type;location;lat;lon;timestamp;P1;durP1;ratioP1;P2;durP2;ratioP2
3571;SDS011;7958;53.024;12.970;2023-04-24T00:00:53;7.13;;;5.53;;
3571;SDS011;7958;53.024;12.970;2023-04-24T00:03:21;5.80;;;5.30;;
3571;SDS011;7958;53.024;12.970;2023-04-24T00:05:48;5.50;;;4.90;;
3571;SDS011;7958;53.024;12.970;2023-04-24T00:08:14;10.67;;;5.70;;
3571;SDS011;7958;53.024;12.970;2023-04-24T00:10:42;6.63;;;6.00;;
3571;SDS011;7958;53.024;12.970;2023-04-24T00:13:08;7.70;;;5.77;;
3571;SDS011;7958;53.024;12.970;2023-04-24T00:15:35;6.27;;;5.67;;
3571;SDS011;7958;53.024;12.970;2023-04-24T00:18:01;6.10;;;5.50;;
3571;SDS011;7958;53.024;12.970;2023-04-24T00:20:28;6.10;;;5.50;;
3571;SDS011;7958;53.024;12.970;2023-04-24T00:22:55;6.90;;;5.33;;
3571;SDS011;7958;53.024;12.970;2023-04-24T00:25:21;6.83;;;6.13;;
3571;SDS011;7958;53.024;12.970;2023-04-24T00:27:49;6.57;;;5.83;;
3571;SDS011;7958;53.024;12.970;2023-04-24T00:30:16;12.33;;;6.13;;
3571;SDS011;7958;53.024;12.970;2023-04-24T00:32:42;5.77;;;5.20;;
3571;SDS011;7958;53.024;12.970;2023-04-24T00:35:08;6.17;;;5.30;;
3571;SDS011;7958;53.024;12.970;2023-04-24T00:37:35;5.63;;;5.03;;
3571;SDS011;7958;53.024;12.970;2023-04-24T00:40:02;6.03;;;5.20;;
3571;SDS011;7958;53.024;12.970;2023-04-24T00:42:29;5.60;;;5.07;;
3571;SDS011;7958;53.024;12.970;2023-04-24T00:44:57;5.23;;;4.73;;
3571;SDS011;7958;53.024;12.970;2023-04-24T00:47:24;5.37;;;4.87;;
3571;SDS011;7958;53.024;12.970;2023-04-24T00:49:51;6.20;;;4.97;;
3571;SDS011;7958;53.024;12.970;2023-04-24T00:52:17;7.73;;;5.63;;
3571;SDS011;7958;53.024;12.970;2023-04-24T00:54:44;5.70;;;5.20;;
3571;SDS011;7958;53.024;12.970;2023-04-24T00:57:10;5.60;;;5.00;;
3571;SDS011;7958;53.024;12.970;2023-04-24T00:59:36;5.97;;;5.40;;
3571;SDS011;7958;53.024;12.970;2023-04-24T01:02:05;5.50;;;4.97;;
3571;SDS011;7958;53.024;12.970;2023-04-24T01:04:32;6.00;;;4.93;;
3571;SDS011;7958;53.024;12.970;2023-04-24T01:06:58;5.10;;;4.60;;
3571;SDS011;7958;53.024;12.970;2023-04-24T01:09:25;6.93;;;5.27;;
3571;SDS011;7958;53.024;12.970;2023-04-24T01:11:52;6.23;;;5.10;;
3571;SDS011;7958;53.024;12.970;2023-04-24T01:14:18;6.73;;;5.70;;
3571;SDS011;7958;53.024;12.970;2023-04-24T01:16:46;7.60;;;5.80;;
3571;SDS011;7958;53.024;12.970;2023-04-24T01:19:13;6.33;;;5.37;;
3571;SDS011;7958;53.024;12.970;2023-04-24T01:21:40;7.33;;;6.50;;
3571;SDS011;7958;53.024;12.970;2023-04-24T01:24:09;6.57;;;5.90;;
3571;SDS011;7958;53.024;12.970;2023-04-24T01:26:36;7.63;;;5.43;;
3571;SDS011;7958;53.024;12.970;2023-04-24T01:29:02;6.83;;;6.00;;
3571;SDS011;7958;53.024;12.970;2023-04-24T01:31:29;12.90;;;5.83;;
3571;SDS011;7958;53.024;12.970;2023-04-24T01:33:56;8.00;;;6.60;;
3571;SDS011;7958;53.024;12.970;2023-04-24T01:36:22;7.50;;;6.60;;
3571;SDS011;7958;53.024;12.970;2023-04-24T01:38:51;7.03;;;6.33;;
3571;SDS011;7958;53.024;12.970;2023-04-24T01:41:19;9.47;;;7.00;;
3571;SDS011;7958;53.024;12.970;2023-04-24T01:43:46;8.87;;;7.03;;
3571;SDS011;7958;53.024;12.970;2023-04-24T01:46:12;7.17;;;6.47;;
3571;SDS011;7958;53.024;12.970;2023-04-24T01:48:38;7.73;;;6.93;;
3571;SDS011;7958;53.024;12.970;2023-04-24T01:51:05;8.07;;;6.70;;
3571;SDS011;7958;53.024;12.970;2023-04-24T01:53:32;7.07;;;6.00;;
3571;SDS011;7958;53.024;12.970;2023-04-24T01:55:59;6.50;;;5.77;;
3571;SDS011;7958;53.024;12.970;2023-04-24T01:58:27;8.43;;;6.40;;
3571;SDS011;7958;53.024;12.970;2023-04-24T02:00:55;6.50;;;5.90;;
3571;SDS011;7958;53.024;12.970;2023-04-24T02:03:22;7.00;;;6.30;;
3571;SDS011;7958;53.024;12.970;2023-04-24T02:05:49;6.90;;;6.20;;
3571;SDS011;7958;53.024;12.970;2023-04-24T02:08:15;5.87;;;5.27;;
3571;SDS011;7958;53.024;12.970;2023-04-24T02:10:41;5.97;;;5.47;;
3571;SDS011;7958;53.024;12.970;2023-04-24T02:13:07;8.50;;;5.27;;
3571;SDS011;7958;53.024;12.970;2023-04-24T02:15:35;7.57;;;6.77;;
3571;SDS011;7958;53.024;12.970;2023-04-24T02:18:02;7.17;;;6.43;;
3571;SDS011;7958;53.024;12.970;2023-04-24T02:20:28;8.50;;;5.40;;
3571;SDS011;7958;53.024;12.970;2023-04-24T02:22:54;6.60;;;5.90;;
3571;SDS011;7958;53.024;12.970;2023-04-24T02:25:21;6.70;;;5.87;;
3571;SDS011;7958;53.024;12.970;2023-04-24T02:27:47;5.67;;;5.07;;
3571;SDS011;7958;53.024;12.970;2023-04-24T02:30:14;7.37;;;6.10;;
3571;SDS011;7958;53.024;12.970;2023-04-24T02:32:42;6.30;;;5.70;;
3571;SDS011;7958;53.024;12.970;2023-04-24T02:35:08;5.90;;;5.30;;
3571;SDS011;7958;53.024;12.970;2023-04-24T02:37:35;6.57;;;5.97;;
3571;SDS011;7958;53.024;12.970;2023-04-24T02:40:01;7.33;;;5.77;;
3571;SDS011;7958;53.024;12.970;2023-04-24T02:42:28;6.10;;;5.50;;
3571;SDS011;7958;53.024;12.970;2023-04-24T02:44:54;5.30;;;4.80;;
3571;SDS011;7958;53.024;12.970;2023-04-24T02:47:20;6.57;;;5.87;;
3571;SDS011;7958;53.024;12.970;2023-04-24T02:49:48;7.73;;;6.40;;
3571;SDS011;7958;53.024;12.970;2023-04-24T02:52:15;7.13;;;5.90;;
3571;SDS011;7958;53.024;12.970;2023-04-24T02:54:41;6.17;;;5.50;;
3571;SDS011;7958;53.024;12.970;2023-04-24T02:57:08;6.17;;;5.13;;
3571;SDS011;7958;53.024;12.970;2023-04-24T02:59:36;8.67;;;6.00;;
3571;SDS011;7958;53.024;12.970;2023-04-24T03:02:03;6.13;;;5.60;;
3571;SDS011;7958;53.024;12.970;2023-04-24T03:04:29;8.40;;;5.90;;
3571;SDS011;7958;53.024;12.970;2023-04-24T03:06:57;6.20;;;5.63;;
3571;SDS011;7958;53.024;12.970;2023-04-24T03:09:24;5.33;;;4.83;;
3571;SDS011;7958;53.024;12.970;2023-04-24T03:11:50;7.30;;;6.53;;
3571;SDS011;7958;53.024;12.970;2023-04-24T03:14:17;6.07;;;5.47;;
3571;SDS011;7958;53.024;12.970;2023-04-24T03:16:43;7.77;;;5.53;;
3571;SDS011;7958;53.024;12.970;2023-04-24T03:19:09;6.10;;;5.57;;
3571;SDS011;7958;53.024;12.970;2023-04-24T03:21:36;6.93;;;6.07;;
3571;SDS011;7958;53.024;12.970;2023-04-24T03:24:07;7.27;;;6.57;;
3571;SDS011;7958;53.024;12.970;2023-04-24T03:26:33;5.70;;;4.90;;
3571;SDS011;7958;53.024;12.970;2023-04-24T03:29:00;6.27;;;5.67;;
3571;SDS011;7958;53.024;12.970;2023-04-24T03:31:26;6.43;;;5.87;;
3571;SDS011;7958;53.024;12.970;2023-04-24T03:33:52;7.00;;;5.67;;
3571;SDS011;7958;53.024;12.970;2023-04-24T03:36:19;6.37;;;5.10;;
3571;SDS011;7958;53.024;12.970;2023-04-24T03:38:45;4.67;;;4.27;;
3571;SDS011;7958;53.024;12.970;2023-04-24T03:41:13;5.67;;;5.17;;
3571;SDS011;7958;53.024;12.970;2023-04-24T03:43:40;5.37;;;4.87;;
3571;SDS011;7958;53.024;12.970;2023-04-24T03:46:06;6.73;;;5.80;;
3571;SDS011;7958;53.024;12.970;2023-04-24T03:48:34;5.87;;;5.33;;
3571;SDS011;7958;53.024;12.970;2023-04-24T03:51:00;8.40;;;5.90;;
3571;SDS011;7958;53.024;12.970;2023-04-24T03:53:26;5.90;;;5.30;;
3571;SDS011;7958;53.024;12.970;2023-04-24T03:55:53;6.03;;;5.43;;
3571;SDS011;7958;53.024;12.970;2023-04-24T03:58:21;5.90;;;5.13;;
3571;SDS011;7958;53.024;12.970;2023-04-24T04:00:47;8.40;;;5.07;;
3571;SDS011;7958;53.024;12.970;2023-04-24T04:03:14;5.27;;;4.77;;
3571;SDS011;7958;53.024;12.970;2023-04-24T04:05:41;5.50;;;5.00;;
3571;SDS011;7958;53.024;12.970;2023-04-24T04:08:07;5.43;;;4.90;;
3571;SDS011;7958;53.024;12.970;2023-04-24T04:10:33;4.93;;;4.47;;
3571;SDS011;7958;53.024;12.970;2023-04-24T04:13:00;6.73;;;4.57;;
3571;SDS011;7958;53.024;12.970;2023-04-24T04:15:28;5.83;;;4.90;;
3571;SDS011;7958;53.024;12.970;2023-04-24T04:17:55;6.00;;;5.07;;
3571;SDS011;7958;53.024;12.970;2023-04-24T04:20:21;7.73;;;5.53;;
3571;SDS011;7958;53.024;12.970;2023-04-24T04:22:48;7.23;;;5.37;;
3571;SDS011;7958;53.024;12.970;2023-04-24T04:25:14;5.23;;;4.73;;
3571;SDS011;7958;53.024;12.970;2023-04-24T04:27:41;7.20;;;5.13;;
3571;SDS011;7958;53.024;12.970;2023-04-24T04:30:07;5.30;;;4.90;;
3571;SDS011;7958;53.024;12.970;2023-04-24T04:32:36;6.70;;;5.43;;
3571;SDS011;7958;53.024;12.970;2023-04-24T04:35:03;5.80;;;5.20;;
3571;SDS011;7958;53.024;12.970;2023-04-24T04:37:31;5.77;;;5.17;;
3571;SDS011;7958;53.024;12.970;2023-04-24T04:39:58;14.83;;;7.00;;
3571;SDS011;7958;53.024;12.970;2023-04-24T04:42:24;7.80;;;5.97;;
3571;SDS011;7958;53.024;12.970;2023-04-24T04:44:51;8.63;;;6.33;;
3571;SDS011;7958;53.024;12.970;2023-04-24T04:47:19;9.53;;;6.33;;
3571;SDS011;7958;53.024;12.970;2023-04-24T04:49:48;9.00;;;6.20;;
3571;SDS011;7958;53.024;12.970;2023-04-24T04:52:17;6.87;;;5.37;;
3571;SDS011;7958;53.024;12.970;2023-04-24T04:54:44;8.67;;;6.40;;
3571;SDS011;7958;53.024;12.970;2023-04-24T04:57:11;9.03;;;6.13;;
3571;SDS011;7958;53.024;12.970;2023-04-24T04:59:37;7.17;;;6.00;;
3571;SDS011;7958;53.024;12.970;2023-04-24T05:02:04;11.63;;;5.40;;
3571;SDS011;7958;53.024;12.970;2023-04-24T05:04:30;7.53;;;5.83;;
3571;SDS011;7958;53.024;12.970;2023-04-24T05:06:58;9.77;;;6.27;;
3571;SDS011;7958;53.024;12.970;2023-04-24T05:09:27;5.93;;;5.37;;
3571;SDS011;7958;53.024;12.970;2023-04-24T05:11:54;6.80;;;4.60;;
3571;SDS011;7958;53.024;12.970;2023-04-24T05:14:21;5.53;;;5.00;;
3571;SDS011;7958;53.024;12.970;2023-04-24T05:16:47;4.63;;;4.23;;
3571;SDS011;7958;53.024;12.970;2023-04-24T05:19:14;5.63;;;5.13;;
3571;SDS011;7958;53.024;12.970;2023-04-24T05:21:41;5.97;;;5.30;;
3571;SDS011;7958;53.024;12.970;2023-04-24T05:24:09;5.27;;;4.80;;
3571;SDS011;7958;53.024;12.970;2023-04-24T05:26:35;5.90;;;5.30;;
3571;SDS011;7958;53.024;12.970;2023-04-24T05:29:01;5.33;;;4.87;;
3571;SDS011;7958;53.024;12.970;2023-04-24T05:31:28;5.30;;;4.80;;
3571;SDS011;7958;53.024;12.970;2023-04-24T05:33:54;5.37;;;4.83;;
3571;SDS011;7958;53.024;12.970;2023-04-24T05:36:21;5.77;;;4.77;;
3571;SDS011;7958;53.024;12.970;2023-04-24T05:38:47;4.50;;;4.20;;
3571;SDS011;7958;53.024;12.970;2023-04-24T05:41:15;5.23;;;4.23;;
3571;SDS011;7958;53.024;12.970;2023-04-24T05:43:42;4.23;;;3.83;;
3571;SDS011;7958;53.024;12.970;2023-04-24T05:46:08;5.40;;;4.90;;
3571;SDS011;7958;53.024;12.970;2023-04-24T05:48:35;4.60;;;4.27;;
3571;SDS011;7958;53.024;12.970;2023-04-24T05:51:01;4.40;;;4.00;;
3571;SDS011;7958;53.024;12.970;2023-04-24T05:53:27;4.10;;;3.80;;
3571;SDS011;7958;53.024;12.970;2023-04-24T05:55:54;3.97;;;3.67;;
3571;SDS011;7958;53.024;12.970;2023-04-24T05:58:22;3.90;;;3.60;;
3571;SDS011;7958;53.024;12.970;2023-04-24T06:00:48;3.23;;;3.03;;
3571;SDS011;7958;53.024;12.970;2023-04-24T06:03:14;4.57;;;3.50;;
3571;SDS011;7958;53.024;12.970;2023-04-24T06:05:43;3.67;;;3.37;;
3571;SDS011;7958;53.024;12.970;2023-04-24T06:08:09;3.07;;;2.87;;
3571;SDS011;7958;53.024;12.970;2023-04-24T06:10:36;4.77;;;2.93;;
3571;SDS011;7958;53.024;12.970;2023-04-24T06:13:05;3.77;;;3.37;;
3571;SDS011;7958;53.024;12.970;2023-04-24T06:15:33;7.83;;;3.00;;
3571;SDS011;7958;53.024;12.970;2023-04-24T06:18:00;2.90;;;2.70;;
3571;SDS011;7958;53.024;12.970;2023-04-24T06:20:28;3.07;;;2.63;;
3571;SDS011;7958;53.024;12.970;2023-04-24T06:22:54;2.90;;;2.70;;
3571;SDS011;7958;53.024;12.970;2023-04-24T06:25:24;2.63;;;2.43;;
3571;SDS011;7958;53.024;12.970;2023-04-24T06:27:51;3.20;;;2.90;;
3571;SDS011;7958;53.024;12.970;2023-04-24T06:30:17;2.83;;;2.57;;
3571;SDS011;7958;53.024;12.970;2023-04-24T06:32:45;3.23;;;2.93;;
3571;SDS011;7958;53.024;12.970;2023-04-24T06:35:14;2.93;;;2.60;;
3571;SDS011;7958;53.024;12.970;2023-04-24T06:37:41;2.13;;;2.03;;
3571;SDS011;7958;53.024;12.970;2023-04-24T06:40:17;2.50;;;2.30;;
3571;SDS011;7958;53.024;12.970;2023-04-24T06:42:44;2.97;;;2.70;;
3571;SDS011;7958;53.024;12.970;2023-04-24T06:45:10;2.47;;;2.27;;
3571;SDS011;7958;53.024;12.970;2023-04-24T06:47:37;2.60;;;2.43;;
3571;SDS011;7958;53.024;12.970;2023-04-24T06:50:10;2.53;;;2.33;;
3571;SDS011;7958;53.024;12.970;2023-04-24T06:52:37;2.60;;;2.37;;
3571;SDS011;7958;53.024;12.970;2023-04-24T06:55:04;3.17;;;2.33;;
3571;SDS011;7958;53.024;12.970;2023-04-24T06:57:31;2.87;;;2.60;;
3571;SDS011;7958;53.024;12.970;2023-04-24T07:00:00;2.30;;;2.03;;
3571;SDS011;7958;53.024;12.970;2023-04-24T07:02:32;2.40;;;2.20;;
3571;SDS011;7958;53.024;12.970;2023-04-24T07:04:58;3.13;;;2.57;;
3571;SDS011;7958;53.024;12.970;2023-04-24T07:07:27;3.20;;;2.90;;
3571;SDS011;7958;53.024;12.970;2023-04-24T07:09:53;2.03;;;1.93;;
3571;SDS011;7958;53.024;12.970;2023-04-24T07:12:24;2.13;;;1.83;;
3571;SDS011;7958;53.024;12.970;2023-04-24T07:14:50;2.10;;;2.00;;
3571;SDS011;7958;53.024;12.970;2023-04-24T07:17:17;2.37;;;2.17;;
3571;SDS011;7958;53.024;12.970;2023-04-24T07:19:43;2.17;;;2.00;;
3571;SDS011;7958;53.024;12.970;2023-04-24T07:22:11;2.10;;;1.90;;
3571;SDS011;7958;53.024;12.970;2023-04-24T07:24:45;2.33;;;2.20;;
3571;SDS011;7958;53.024;12.970;2023-04-24T07:27:11;2.77;;;2.57;;
3571;SDS011;7958;53.024;12.970;2023-04-24T07:29:39;2.43;;;2.10;;
3571;SDS011;7958;53.024;12.970;2023-04-24T07:32:06;3.20;;;2.47;;
3571;SDS011;7958;53.024;12.970;2023-04-24T07:34:32;2.00;;;1.60;;
3571;SDS011;7958;53.024;12.970;2023-04-24T07:36:59;2.30;;;2.00;;
3571;SDS011;7958;53.024;12.970;2023-04-24T07:39:25;2.37;;;1.40;;
3571;SDS011;7958;53.024;12.970;2023-04-24T07:41:54;1.60;;;1.50;;
3571;SDS011;7958;53.024;12.970;2023-04-24T07:44:20;3.63;;;1.57;;
3571;SDS011;7958;53.024;12.970;2023-04-24T07:46:49;1.77;;;1.53;;
3571;SDS011;7958;53.024;12.970;2023-04-24T07:49:16;1.73;;;1.50;;
3571;SDS011;7958;53.024;12.970;2023-04-24T07:51:45;3.23;;;1.77;;
3571;SDS011;7958;53.024;12.970;2023-04-24T07:54:11;1.90;;;1.27;;
3571;SDS011;7958;53.024;12.970;2023-04-24T07:56:45;1.47;;;1.20;;
3571;SDS011;7958;53.024;12.970;2023-04-24T07:59:19;1.63;;;1.20;;
3571;SDS011;7958;53.024;12.970;2023-04-24T08:01:45;1.17;;;1.10;;
3571;SDS011;7958;53.024;12.970;2023-04-24T08:04:11;1.00;;;1.00;;
3571;SDS011;7958;53.024;12.970;2023-04-24T08:06:38;1.10;;;1.00;;
3571;SDS011;7958;53.024;12.970;2023-04-24T08:09:04;1.17;;;1.10;;
3571;SDS011;7958;53.024;12.970;2023-04-24T08:11:31;1.10;;;1.10;;
3571;SDS011;7958;53.024;12.970;2023-04-24T08:13:57;1.20;;;1.10;;
3571;SDS011;7958;53.024;12.970;2023-04-24T08:16:28;2.80;;;1.30;;
3571;SDS011;7958;53.024;12.970;2023-04-24T08:18:54;1.83;;;1.10;;
3571;SDS011;7958;53.024;12.970;2023-04-24T08:21:21;1.53;;;1.43;;
3571;SDS011;7958;53.024;12.970;2023-04-24T08:23:48;3.70;;;2.60;;
3571;SDS011;7958;53.024;12.970;2023-04-24T08:26:14;0.80;;;0.80;;
3571;SDS011;7958;53.024;12.970;2023-04-24T08:28:41;2.77;;;1.83;;
3571;SDS011;7958;53.024;12.970;2023-04-24T08:31:08;1.37;;;1.13;;
3571;SDS011;7958;53.024;12.970;2023-04-24T08:33:36;0.93;;;0.80;;
3571;SDS011;7958;53.024;12.970;2023-04-24T08:36:03;1.80;;;0.97;;
3571;SDS011;7958;53.024;12.970;2023-04-24T08:38:33;1.30;;;1.20;;
3571;SDS011;7958;53.024;12.970;2023-04-24T08:41:02;0.80;;;0.80;;
3571;SDS011;7958;53.024;12.970;2023-04-24T08:43:30;1.17;;;0.80;;
3571;SDS011;7958;53.024;12.970;2023-04-24T08:45:57;1.80;;;1.57;;
3571;SDS011;7958;53.024;12.970;2023-04-24T08:48:24;0.80;;;0.80;;
3571;SDS011;7958;53.024;12.970;2023-04-24T08:50:52;1.00;;;0.90;;
3571;SDS011;7958;53.024;12.970;2023-04-24T08:53:19;0.97;;;0.90;;
3571;SDS011;7958;53.024;12.970;2023-04-24T08:55:47;1.70;;;0.80;;
3571;SDS011;7958;53.024;12.970;2023-04-24T08:58:14;0.97;;;0.97;;
3571;SDS011;7958;53.024;12.970;2023-04-24T09:00:42;0.83;;;0.83;;
3571;SDS011;7958;53.024;12.970;2023-04-24T09:03:12;0.90;;;0.90;;
3571;SDS011;7958;53.024;12.970;2023-04-24T09:05:39;0.80;;;0.80;;
3571;SDS011;7958;53.024;12.970;2023-04-24T09:08:11;2.20;;;1.20;;
3571;SDS011;7958;53.024;12.970;2023-04-24T09:10:39;1.17;;;1.00;;
3571;SDS011;7958;53.024;12.970;2023-04-24T09:13:06;2.90;;;0.87;;
3571;SDS011;7958;53.024;12.970;2023-04-24T09:15:34;0.90;;;0.90;;
3571;SDS011;7958;53.024;12.970;2023-04-24T09:18:01;0.90;;;0.90;;
3571;SDS011;7958;53.024;12.970;2023-04-24T09:20:27;0.90;;;0.90;;
3571;SDS011;7958;53.024;12.970;2023-04-24T09:22:53;0.80;;;0.80;;
3571;SDS011;7958;53.024;12.970;2023-04-24T09:25:22;0.80;;;0.80;;
3571;SDS011;7958;53.024;12.970;2023-04-24T09:27:53;0.97;;;0.90;;
3571;SDS011;7958;53.024;12.970;2023-04-24T09:30:21;1.10;;;0.97;;
3571;SDS011;7958;53.024;12.970;2023-04-24T09:32:48;1.00;;;1.00;;
3571;SDS011;7958;53.024;12.970;2023-04-24T09:35:15;1.30;;;0.73;;
3571;SDS011;7958;53.024;12.970;2023-04-24T09:37:44;1.50;;;0.97;;
3571;SDS011;7958;53.024;12.970;2023-04-24T09:40:12;0.83;;;0.70;;
3571;SDS011;7958;53.024;12.970;2023-04-24T09:42:41;1.13;;;1.00;;
3571;SDS011;7958;53.024;12.970;2023-04-24T09:45:12;0.87;;;0.87;;
3571;SDS011;7958;53.024;12.970;2023-04-24T09:47:38;2.40;;;0.80;;
3571;SDS011;7958;53.024;12.970;2023-04-24T09:50:09;2.73;;;0.90;;
3571;SDS011;7958;53.024;12.970;2023-04-24T09:52:39;3.07;;;0.90;;
3571;SDS011;7958;53.024;12.970;2023-04-24T09:55:10;0.80;;;0.80;;
3571;SDS011;7958;53.024;12.970;2023-04-24T09:57:43;1.73;;;1.10;;
3571;SDS011;7958;53.024;12.970;2023-04-24T10:00:17;0.83;;;0.80;;
3571;SDS011;7958;53.024;12.970;2023-04-24T10:02:45;1.30;;;1.07;;
3571;SDS011;7958;53.024;12.970;2023-04-24T10:05:16;1.03;;;1.03;;
3571;SDS011;7958;53.024;12.970;2023-04-24T10:07:43;0.93;;;0.93;;
3571;SDS011;7958;53.024;12.970;2023-04-24T10:10:11;2.70;;;0.80;;
3571;SDS011;7958;53.024;12.970;2023-04-24T10:12:41;1.20;;;1.00;;
3571;SDS011;7958;53.024;12.970;2023-04-24T10:15:10;0.80;;;0.80;;
3571;SDS011;7958;53.024;12.970;2023-04-24T10:17:38;1.57;;;0.90;;
3571;SDS011;7958;53.024;12.970;2023-04-24T10:20:05;0.83;;;0.83;;
3571;SDS011;7958;53.024;12.970;2023-04-24T10:22:34;1.50;;;0.90;;
3571;SDS011;7958;53.024;12.970;2023-04-24T10:25:02;0.80;;;0.80;;
3571;SDS011;7958;53.024;12.970;2023-04-24T10:27:31;2.77;;;1.10;;
3571;SDS011;7958;53.024;12.970;2023-04-24T10:30:00;1.63;;;0.90;;
3571;SDS011;7958;53.024;12.970;2023-04-24T10:32:27;1.27;;;0.87;;
3571;SDS011;7958;53.024;12.970;2023-04-24T10:34:55;1.87;;;1.00;;
3571;SDS011;7958;53.024;12.970;2023-04-24T10:37:21;1.50;;;0.87;;
3571;SDS011;7958;53.024;12.970;2023-04-24T10:39:48;1.57;;;0.70;;
3571;SDS011;7958;53.024;12.970;2023-04-24T10:42:16;0.80;;;0.80;;
3571;SDS011;7958;53.024;12.970;2023-04-24T10:44:42;0.70;;;0.70;;
3571;SDS011;7958;53.024;12.970;2023-04-24T10:47:13;1.63;;;0.80;;
3571;SDS011;7958;53.024;12.970;2023-04-24T10:49:40;1.53;;;0.93;;
3571;SDS011;7958;53.024;12.970;2023-04-24T10:52:06;2.40;;;1.30;;
3571;SDS011;7958;53.024;12.970;2023-04-24T10:54:41;0.90;;;0.90;;
3571;SDS011;7958;53.024;12.970;2023-04-24T10:57:26;0.83;;;0.83;;
3571;SDS011;7958;53.024;12.970;2023-04-24T11:00:14;0.90;;;0.90;;
3571;SDS011;7958;53.024;12.970;2023-04-24T11:02:45;2.53;;;0.80;;
3571;SDS011;7958;53.024;12.970;2023-04-24T11:05:15;1.20;;;1.00;;
3571;SDS011;7958;53.024;12.970;2023-04-24T11:10:38;0.70;;;0.70;;
3571;SDS011;7958;53.024;12.970;2023-04-24T11:13:08;1.33;;;1.00;;
3571;SDS011;7958;53.024;12.970;2023-04-24T11:15:34;0.80;;;0.80;;
3571;SDS011;7958;53.024;12.970;2023-04-24T11:18:05;1.37;;;0.80;;
3571;SDS011;7958;53.024;12.970;2023-04-24T11:20:31;0.90;;;0.90;;
3571;SDS011;7958;53.024;12.970;2023-04-24T11:23:00;0.80;;;0.80;;
3571;SDS011;7958;53.024;12.970;2023-04-24T11:25:36;1.10;;;0.70;;
3571;SDS011;7958;53.024;12.970;2023-04-24T11:28:03;0.83;;;0.73;;
3571;SDS011;7958;53.024;12.970;2023-04-24T11:30:31;0.70;;;0.70;;
3571;SDS011;7958;53.024;12.970;2023-04-24T11:33:01;2.73;;;0.80;;
3571;SDS011;7958;53.024;12.970;2023-04-24T11:35:30;0.83;;;0.83;;
3571;SDS011;7958;53.024;12.970;2023-04-24T11:38:02;1.73;;;0.90;;
3571;SDS011;7958;53.024;12.970;2023-04-24T11:40:30;0.90;;;0.90;;
3571;SDS011;7958;53.024;12.970;2023-04-24T11:42:56;0.80;;;0.80;;
3571;SDS011;7958;53.024;12.970;2023-04-24T11:45:27;2.73;;;1.20;;
3571;SDS011;7958;53.024;12.970;2023-04-24T11:47:54;3.33;;;1.30;;
3571;SDS011;7958;53.024;12.970;2023-04-24T11:50:21;2.93;;;1.20;;
3571;SDS011;7958;53.024;12.970;2023-04-24T11:52:52;3.17;;;1.33;;
3571;SDS011;7958;53.024;12.970;2023-04-24T11:55:25;1.47;;;1.20;;
3571;SDS011;7958;53.024;12.970;2023-04-24T11:57:53;4.17;;;1.40;;
3571;SDS011;7958;53.024;12.970;2023-04-24T12:00:22;0.90;;;0.90;;
3571;SDS011;7958;53.024;12.970;2023-04-24T12:02:49;1.63;;;1.00;;
3571;SDS011;7958;53.024;12.970;2023-04-24T12:05:19;1.90;;;1.30;;
3571;SDS011;7958;53.024;12.970;2023-04-24T12:07:45;1.43;;;1.33;;
3571;SDS011;7958;53.024;12.970;2023-04-24T12:10:13;1.57;;;1.10;;
3571;SDS011;7958;53.024;12.970;2023-04-24T12:12:40;0.90;;;0.90;;
3571;SDS011;7958;53.024;12.970;2023-04-24T12:15:07;1.53;;;0.87;;
3571;SDS011;7958;53.024;12.970;2023-04-24T12:17:35;2.00;;;0.90;;
3571;SDS011;7958;53.024;12.970;2023-04-24T12:20:02;1.77;;;0.90;;
3571;SDS011;7958;53.024;12.970;2023-04-24T12:22:42;1.80;;;1.20;;
3571;SDS011;7958;53.024;12.970;2023-04-24T12:25:11;3.70;;;1.40;;
3571;SDS011;7958;53.024;12.970;2023-04-24T12:27:39;1.43;;;1.33;;
3571;SDS011;7958;53.024;12.970;2023-04-24T12:30:10;1.83;;;1.17;;
3571;SDS011;7958;53.024;12.970;2023-04-24T12:32:40;3.17;;;1.33;;
3571;SDS011;7958;53.024;12.970;2023-04-24T12:35:10;1.53;;;1.33;;
3571;SDS011;7958;53.024;12.970;2023-04-24T12:37:37;4.73;;;2.73;;
3571;SDS011;7958;53.024;12.970;2023-04-24T12:40:05;1.60;;;1.50;;
3571;SDS011;7958;53.024;12.970;2023-04-24T12:42:35;1.90;;;1.70;;
3571;SDS011;7958;53.024;12.970;2023-04-24T12:45:03;1.60;;;1.47;;
3571;SDS011;7958;53.024;12.970;2023-04-24T12:47:31;2.80;;;1.50;;
3571;SDS011;7958;53.024;12.970;2023-04-24T12:50:03;2.30;;;1.83;;
3571;SDS011;7958;53.024;12.970;2023-04-24T12:52:31;1.60;;;1.50;;
3571;SDS011;7958;53.024;12.970;2023-04-24T12:54:58;3.77;;;1.40;;
3571;SDS011;7958;53.024;12.970;2023-04-24T12:57:31;1.43;;;1.33;;
3571;SDS011;7958;53.024;12.970;2023-04-24T12:59:59;1.60;;;1.50;;
3571;SDS011;7958;53.024;12.970;2023-04-24T13:02:27;2.23;;;1.40;;
3571;SDS011;7958;53.024;12.970;2023-04-24T13:04:56;1.50;;;1.40;;
3571;SDS011;7958;53.024;12.970;2023-04-24T13:07:23;1.27;;;1.27;;
3571;SDS011;7958;53.024;12.970;2023-04-24T13:09:50;4.00;;;1.43;;
3571;SDS011;7958;53.024;12.970;2023-04-24T13:12:17;1.20;;;1.20;;
3571;SDS011;7958;53.024;12.970;2023-04-24T13:14:44;1.27;;;1.27;;
3571;SDS011;7958;53.024;12.970;2023-04-24T13:17:13;1.40;;;1.30;;
3571;SDS011;7958;53.024;12.970;2023-04-24T13:19:41;1.40;;;1.30;;
3571;SDS011;7958;53.024;12.970;2023-04-24T13:22:09;1.17;;;1.17;;
3571;SDS011;7958;53.024;12.970;2023-04-24T13:24:35;1.63;;;1.53;;
3571;SDS011;7958;53.024;12.970;2023-04-24T13:27:07;1.60;;;1.50;;
3571;SDS011;7958;53.024;12.970;2023-04-24T13:29:34;3.17;;;1.10;;
3571;SDS011;7958;53.024;12.970;2023-04-24T13:32:01;1.53;;;1.43;;
3571;SDS011;7958;53.024;12.970;2023-04-24T13:34:29;1.47;;;1.37;;
3571;SDS011;7958;53.024;12.970;2023-04-24T13:36:59;1.57;;;1.47;;
3571;SDS011;7958;53.024;12.970;2023-04-24T13:39:34;1.73;;;1.43;;
3571;SDS011;7958;53.024;12.970;2023-04-24T13:42:01;1.60;;;1.50;;
3571;SDS011;7958;53.024;12.970;2023-04-24T13:44:27;1.70;;;1.60;;
3571;SDS011;7958;53.024;12.970;2023-04-24T13:46:57;1.40;;;1.30;;
3571;SDS011;7958;53.024;12.970;2023-04-24T13:49:25;1.50;;;1.40;;
3571;SDS011;7958;53.024;12.970;2023-04-24T13:51:53;1.67;;;1.57;;
3571;SDS011;7958;53.024;12.970;2023-04-24T13:54:23;1.70;;;1.60;;
3571;SDS011;7958;53.024;12.970;2023-04-24T13:56:50;2.57;;;2.37;;
3571;SDS011;7958;53.024;12.970;2023-04-24T13:59:17;2.23;;;1.70;;
3571;SDS011;7958;53.024;12.970;2023-04-24T14:01:44;1.83;;;1.73;;
3571;SDS011;7958;53.024;12.970;2023-04-24T14:04:15;2.03;;;1.80;;
3571;SDS011;7958;53.024;12.970;2023-04-24T14:06:41;1.77;;;1.67;;
3571;SDS011;7958;53.024;12.970;2023-04-24T14:10:51;1.70;;;1.60;;
3571;SDS011;7958;53.024;12.970;2023-04-24T14:13:18;2.00;;;1.90;;
3571;SDS011;7958;53.024;12.970;2023-04-24T14:15:44;1.73;;;1.63;;
3571;SDS011;7958;53.024;12.970;2023-04-24T14:18:11;1.87;;;1.70;;
3571;SDS011;7958;53.024;12.970;2023-04-24T14:20:37;1.60;;;1.50;;
3571;SDS011;7958;53.024;12.970;2023-04-24T14:23:04;5.20;;;1.70;;
3571;SDS011;7958;53.024;12.970;2023-04-24T14:25:30;1.40;;;1.37;;
3571;SDS011;7958;53.024;12.970;2023-04-24T14:27:58;3.47;;;2.40;;
3571;SDS011;7958;53.024;12.970;2023-04-24T14:30:24;1.83;;;1.73;;
3571;SDS011;7958;53.024;12.970;2023-04-24T14:32:51;2.47;;;1.60;;
3571;SDS011;7958;53.024;12.970;2023-04-24T14:35:18;1.37;;;1.27;;
3571;SDS011;7958;53.024;12.970;2023-04-24T14:37:45;1.63;;;1.50;;
3571;SDS011;7958;53.024;12.970;2023-04-24T14:40:13;5.50;;;2.83;;
3571;SDS011;7958;53.024;12.970;2023-04-24T14:42:40;2.63;;;2.43;;
3571;SDS011;7958;53.024;12.970;2023-04-24T14:45:08;5.20;;;2.80;;
3571;SDS011;7958;53.024;12.970;2023-04-24T14:47:36;3.63;;;2.20;;
3571;SDS011;7958;53.024;12.970;2023-04-24T14:50:02;1.37;;;1.33;;
3571;SDS011;7958;53.024;12.970;2023-04-24T14:52:29;1.47;;;1.37;;
3571;SDS011;7958;53.024;12.970;2023-04-24T14:54:56;1.80;;;1.70;;
3571;SDS011;7958;53.024;12.970;2023-04-24T14:57:23;2.53;;;1.70;;
3571;SDS011;7958;53.024;12.970;2023-04-24T14:59:50;1.50;;;1.40;;
3571;SDS011;7958;53.024;12.970;2023-04-24T15:02:18;1.60;;;1.50;;
3571;SDS011;7958;53.024;12.970;2023-04-24T15:04:45;1.60;;;1.50;;
3571;SDS011;7958;53.024;12.970;2023-04-24T15:07:11;15.60;;;5.20;;